Time;durP1;ratioP1;P1;durP2;ratioP2;P2;SDS_P1;SDS_P2;PMS_P1;PMS_P2;Temp;Humidity;BMP_temperature;BMP_pressure;BME280_temperature;BME280_humidity;BME280_pressure;Samples;Min_cycle;Max_cycle;Signal;HPM_P1;HPM_P2
2022/11/21 00:00:58;;;;;;;28.00;15.67;;;;;;;;;;5063830;28;20121;-81
2022/11/21 00:03:42;;;;;;;32.10;17.13;;;;;;;;;;5093420;28;20117;-82
2022/11/21 00:06:28;;;;;;;29.87;15.57;;;;;;;;;;5093283;28;20073;-81
2022/11/21 00:09:12;;;;;;;27.77;16.57;;;;;;;;;;5093217;28;20116;-82
2022/11/21 00:11:57;;;;;;;29.07;16.00;;;;;;;;;;5077384;28;20089;-82
2022/11/21 00:14:41;;;;;;;27.57;16.27;;;;;;;;;;5077716;28;20537;-83
2022/11/21 00:17:26;;;;;;;27.17;15.33;;;;;;;;;;5093347;28;20085;-82
2022/11/21 00:20:11;;;;;;;27.70;16.60;;;1.20;99.90;;;;;;5077643;28;20400;-81
2022/11/21 00:22:55;;;;;;;36.17;18.57;;;;;;;;;;5062906;28;20449;-82
2022/11/21 00:25:40;;;;;;;32.70;17.20;;;;;;;;;;5093003;28;20035;-82
2022/11/21 00:28:25;;;;;;;27.23;16.33;;;;;;;;;;5077496;28;20538;-82
2022/11/21 00:31:20;;;;;;;31.20;16.93;;;1.40;99.90;;;;;;5063110;28;20084;-82
2022/11/21 00:34:05;;;;;;;31.30;17.73;;;;;;;;;;5077069;28;20051;-82
2022/11/21 00:36:50;;;;;;;27.70;16.80;;;;;;;;;;5077144;28;20501;-83
2022/11/21 00:39:34;;;;;;;25.37;16.13;;;;;;;;;;5077566;28;20031;-82
2022/11/21 00:42:19;;;;;;;30.27;16.90;;;;;;;;;;5077453;28;20035;-82
2022/11/21 00:45:03;;;;;;;26.07;16.17;;;1.30;99.90;;;;;;5077150;28;20090;-83
2022/11/21 00:47:47;;;;;;;28.57;17.10;;;;;;;;;;5063219;28;20039;-82
2022/11/21 00:50:32;;;;;;;27.77;16.17;;;;;;;;;;5063447;28;20043;-82
2022/11/21 00:53:16;;;;;;;26.63;16.50;;;;;;;;;;5092322;28;20090;-82
2022/11/21 00:56:01;;;;;;;25.07;15.23;;;;;;;;;;5092121;28;20085;-83
2022/11/21 00:58:45;;;;;;;27.10;16.53;;;;;;;;;;5092693;28;20035;-81
2022/11/21 01:01:30;;;;;;;32.23;17.30;;;;;;;;;;5063059;28;20038;-82
2022/11/21 01:04:15;;;;;;;29.37;16.90;;;;;;;;;;5092195;28;20062;-82
2022/11/21 01:06:59;;;;;;;35.17;19.00;;;;;;;;;;5092143;28;20509;-82
2022/11/21 01:09:44;;;;;;;30.30;17.93;;;;;;;;;;5077193;28;20412;-82
2022/11/21 01:12:28;;;;;;;28.27;16.83;;;;;;;;;;5092360;28;20104;-82
2022/11/21 01:15:14;;;;;;;28.47;17.53;;;;;;;;;;5091804;28;20086;-82
2022/11/21 01:17:59;;;;;;;30.40;17.37;;;;;;;;;;5092028;28;20490;-82
2022/11/21 01:20:43;;;;;;;28.27;17.37;;;;;;;;;;5077176;28;20546;-81
2022/11/21 01:23:28;;;;;;;28.20;17.00;;;;;;;;;;5077028;28;20407;-82
2022/11/21 01:26:15;;;;;;;26.97;16.47;;;1.00;99.90;;;;;;5076632;28;20408;-81
2022/11/21 01:29:00;;;;;;;25.03;16.17;;;;;;;;;;5076523;28;20039;-82
2022/11/21 01:31:44;;;;;;;29.83;18.23;;;;;;;;;;5077025;28;20046;-82
2022/11/21 01:34:29;;;;;;;34.23;17.27;;;;;;;;;;5078983;28;20602;-82
2022/11/21 01:37:13;;;;;;;31.77;17.63;;;;;;;;;;5095613;28;20065;-82
2022/11/21 01:39:58;;;;;;;28.83;17.13;;;;;;;;;;5080532;28;20447;-83
2022/11/21 01:43:12;;;;;;;30.40;17.40;;;0.80;99.90;;;;;;5080723;28;20408;-82
2022/11/21 01:46:00;;;;;;;29.80;17.38;;;0.90;99.90;;;;;;5095872;28;20043;-82
2022/11/21 01:49:19;;;;;;;28.90;15.93;;;0.60;99.90;;;;;;5080763;28;20035;-81
2022/11/21 01:52:04;;;;;;;25.73;15.23;;;;;;;;;;5095296;28;20462;-83
2022/11/21 01:54:54;;;;;;;28.27;16.57;;;0.50;99.90;;;;;;5080321;28;20063;-82
2022/11/21 01:57:42;;;;;;;25.60;15.83;;;0.40;99.90;;;;;;5080410;28;20043;-82
2022/11/21 02:00:30;;;;;;;26.70;15.47;;;0.30;99.90;;;;;;5095684;28;20081;-82
2022/11/21 02:03:19;;;;;;;27.90;16.50;;;0.20;99.90;;;;;;5095194;28;20043;-81
2022/11/21 02:06:07;;;;;;;28.40;16.80;;;0.20;99.90;;;;;;5095234;28;20039;-81
2022/11/21 02:08:52;;;;;;;26.30;16.00;;;;;;;;;;5078662;28;20039;-82
2022/11/21 02:11:51;;;;;;;28.00;16.57;;;0.00;99.90;;;;;;5082933;28;20119;-81
2022/11/21 02:14:37;;;;;;;30.33;17.80;;;0.00;99.90;;;;;;5080156;28;20434;-82
2022/11/21 02:17:22;;;;;;;28.17;17.27;;;;;;;;;;5094949;28;20046;-82
2022/11/21 02:20:18;;;;;;;27.23;15.77;;;0.00;99.90;;;;;;5095006;28;20093;-82
2022/11/21 02:23:24;;;;;;;29.57;16.67;;;-0.10;99.90;;;;;;5079578;28;20427;-83
2022/11/21 02:26:09;;;;;;;28.77;15.00;;;-0.10;99.90;;;;;;5094642;28;20082;-81
2022/11/21 02:28:55;;;;;;;28.80;16.63;;;;;;;;;;5079900;28;20055;-81
2022/11/21 02:31:39;;;;;;;29.17;16.10;;;;;;;;;;5095001;28;20106;-81
2022/11/21 02:34:24;;;;;;;31.57;18.10;;;;;;;;;;5094589;28;20051;-81
2022/11/21 02:37:09;;;;;;;33.87;18.80;;;-0.20;99.90;;;;;;5094728;28;20094;-82
2022/11/21 02:39:55;;;;;;;31.53;18.67;;;-0.30;99.90;;;;;;5065341;28;20116;-81
2022/11/21 02:43:13;;;;;;;34.60;18.10;;;-0.10;99.90;;;;;;5094728;28;20074;-80
2022/11/21 02:45:58;;;;;;;34.03;18.23;;;;;;;;;;5087459;28;20093;-81
2022/11/21 02:48:42;;;;;;;29.77;17.63;;;;;;;;;;5079854;28;20507;-80
2022/11/21 02:51:27;;;;;;;32.07;17.40;;;;;;;;;;5078719;28;20121;-81
2022/11/21 02:54:11;;;;;;;28.57;16.60;;;;;;;;;;5094452;28;20506;-80
2022/11/21 02:56:56;;;;;;;28.83;17.23;;;;;;;;;;5094896;28;20074;-80
2022/11/21 02:59:40;;;;;;;29.23;17.13;;;;;;;;;;5094678;28;20133;-80
2022/11/21 03:02:25;;;;;;;29.60;17.40;;;;;;;;;;5094179;28;20123;-80
2022/11/21 03:05:12;;;;;;;32.97;19.03;;;-0.60;99.90;;;;;;5093992;28;20031;-81
2022/11/21 03:07:57;;;;;;;32.70;18.37;;;;;;;;;;5079208;28;20039;-80
2022/11/21 03:10:42;;;;;;;30.77;17.17;;;;;;;;;;5094439;28;20035;-80
2022/11/21 03:13:26;;;;;;;32.77;18.47;;;;;;;;;;5093778;28;20177;-80
2022/11/21 03:16:11;;;;;;;32.07;17.30;;;;;;;;;;5093916;28;20123;-81
2022/11/21 03:18:56;;;;;;;27.63;17.23;;;;;;;;;;5078820;28;20038;-80
2022/11/21 03:21:41;;;;;;;29.93;17.03;;;;;;;;;;5065026;28;20047;-80
2022/11/21 03:24:26;;;;;;;33.13;18.20;;;;;;;;;;5093758;28;20039;-80
2022/11/21 03:27:10;;;;;;;31.63;18.77;;;;;;;;;;5093585;28;20071;-80
2022/11/21 03:29:55;;;;;;;29.70;17.73;;;;;;;;;;5094034;28;20047;-80
2022/11/21 03:32:40;;;;;;;28.93;18.07;;;;;;;;;;5093842;28;20039;-80
2022/11/21 03:35:25;;;;;;;26.93;15.83;;;-0.80;99.90;;;;;;5078334;28;20507;-80
2022/11/21 03:38:09;;;;;;;29.27;17.30;;;;;;;;;;5093857;28;20059;-80
2022/11/21 03:40:54;;;;;;;32.03;18.50;;;;;;;;;;5093734;28;20043;-80
2022/11/21 03:43:38;;;;;;;30.47;16.87;;;;;;;;;;5078553;28;20093;-80
2022/11/21 03:46:23;;;;;;;27.50;17.20;;;;;;;;;;5063871;28;20054;-79
2022/11/21 03:49:08;;;;;;;32.40;18.20;;;-1.00;99.90;;;;;;5093715;28;20093;-80
2022/11/21 03:51:52;;;;;;;31.03;18.57;;;;;;;;;;5078004;28;20226;-80
2022/11/21 03:54:37;;;;;;;30.47;17.47;;;;;;;;;;5093012;28;20039;-80
2022/11/21 03:57:22;;;;;;;32.10;18.53;;;;;;;;;;5092531;28;20082;-79
2022/11/21 04:00:07;;;;;;;29.67;17.70;;;;;;;;;;5093362;28;20544;-80
2022/11/21 04:02:52;;;;;;;29.13;17.43;;;;;;;;;;5077895;28;20120;-80
2022/11/21 04:05:36;;;;;;;31.77;18.90;;;;;;;;;;5092860;28;20082;-80
2022/11/21 04:08:21;;;;;;;31.03;18.33;;;;;;;;;;5092780;28;20038;-80
2022/11/21 04:11:06;;;;;;;36.30;19.73;;;;;;;;;;5093380;28;20097;-80
2022/11/21 04:13:51;;;;;;;33.67;18.83;;;-1.20;99.90;;;;;;5077832;28;20093;-80
2022/11/21 04:16:36;;;;;;;35.40;16.80;;;;;;;;;;5092628;28;20543;-80
2022/11/21 04:19:21;;;;;;;33.67;18.60;;;;;;;;;;5092786;28;20027;-81
2022/11/21 04:22:05;;;;;;;32.47;18.67;;;;;;;;;;5092968;28;20101;-80
2022/11/21 04:24:50;;;;;;;31.27;18.60;;;;;;;;;;5093244;28;20058;-80
2022/11/21 04:27:34;;;;;;;34.23;19.50;;;;;;;;;;5077245;28;20082;-80
2022/11/21 04:30:19;;;;;;;35.30;19.80;;;;;;;;;;5077256;28;20062;-80
2022/11/21 04:33:03;;;;;;;30.00;17.77;;;;;;;;;;5077614;28;20047;-79
2022/11/21 04:35:47;;;;;;;32.90;18.00;;;;;;;;;;5077470;28;20039;-80
2022/11/21 04:38:32;;;;;;;33.33;18.63;;;;;;;;;;5077199;28;20104;-80
2022/11/21 04:41:16;;;;;;;34.97;17.80;;;;;;;;;;5077548;28;20039;-80
2022/11/21 04:44:01;;;;;;;35.70;19.07;;;;;;;;;;5092944;28;20446;-79
2022/11/21 04:46:45;;;;;;;32.07;18.77;;;;;;;;;;5081394;28;20039;-80
2022/11/21 04:49:30;;;;;;;31.07;18.60;;;;;;;;;;5092227;28;20051;-80
2022/11/21 04:52:14;;;;;;;35.00;18.87;;;;;;;;;;5077350;28;20066;-80
2022/11/21 04:54:59;;;;;;;29.87;17.37;;;;;;;;;;5092625;28;20043;-80
2022/11/21 04:57:44;;;;;;;34.30;18.67;;;;;;;;;;5092111;28;20039;-80
2022/11/21 05:00:28;;;;;;;35.70;18.10;;;;;;;;;;5092257;28;20079;-80
2022/11/21 05:03:13;;;;;;;30.93;17.80;;;;;;;;;;5092460;28;20553;-80
2022/11/21 05:05:57;;;;;;;34.87;18.40;;;;;;;;;;5092687;28;20400;-80
2022/11/21 05:08:41;;;;;;;33.83;18.23;;;;;;;;;;5094416;28;20099;-80
2022/11/21 05:14:30;;;;;;;36.23;19.53;;;;;;;;;;5096334;28;20522;-79
2022/11/21 05:17:14;;;;;;;32.50;18.37;;;;;;;;;;5096521;28;20039;-79
2022/11/21 05:19:59;;;;;;;38.73;18.87;;;;;;;;;;5081236;28;20139;-79
2022/11/21 05:22:48;;;;;;;38.13;19.23;;;;;;;;;;5080768;28;20043;-80
2022/11/21 05:25:33;;;;;;;34.77;19.47;;;;;;;;;;5080666;28;20075;-80
2022/11/21 05:28:17;;;;;;;36.73;19.60;;;;;;;;;;5096612;28;20035;-79
2022/11/21 05:31:02;;;;;;;35.67;20.63;;;;;;;;;;5081131;28;20499;-80
2022/11/21 05:33:46;;;;;;;37.47;20.67;;;;;;;;;;5080593;28;20064;-79
2022/11/21 05:36:31;;;;;;;40.43;20.83;;;;;;;;;;5095917;28;20088;-80
2022/11/21 05:39:15;;;;;;;39.27;21.77;;;;;;;;;;5066843;28;20495;-80
2022/11/21 05:42:00;;;;;;;42.47;21.57;;;;;;;;;;5066691;28;20085;-80
2022/11/21 05:44:44;;;;;;;42.10;21.83;;;;;;;;;;5066171;28;20086;-80
2022/11/21 05:47:28;;;;;;;40.97;22.47;;;;;;;;;;5095599;28;20046;-80
2022/11/21 05:50:13;;;;;;;46.27;22.00;;;-1.60;99.90;;;;;;5096036;28;20146;-80
2022/11/21 05:52:59;;;;;;;;;;;1.70;99.90;;;;;;5075136;28;20075;-80
2022/11/21 05:55:44;;;;;;;41.40;20.23;;;;;;;;;;5075201;28;19920;-80
2022/11/21 05:58:29;;;;;;;40.70;22.50;;;;;;;;;;5075543;28;20066;-80
2022/11/21 06:01:14;;;;;;;42.83;21.57;;;;;;;;;;5075352;28;20066;-80
2022/11/21 06:04:00;;;;;;;39.70;22.37;;;-1.50;99.90;;;;;;5074804;28;20037;-80
2022/11/21 06:06:45;;;;;;;42.57;23.07;;;;;;;;;;5073782;28;20051;-80
2022/11/21 06:09:29;;;;;;;43.20;22.27;;;;;;;;;;5074424;28;20070;-80
2022/11/21 06:12:14;;;;;;;45.73;23.97;;;;;;;;;;5060097;28;20047;-80
2022/11/21 06:14:58;;;;;;;47.77;24.63;;;;;;;;;;5074109;28;20067;-80
2022/11/21 06:17:43;;;;;;;42.57;22.37;;;;;;;;;;5061056;28;20090;-80
2022/11/21 06:20:27;;;;;;;48.53;22.63;;;;;;;;;;5073059;28;20036;-80
2022/11/21 06:23:12;;;;;;;43.77;23.83;;;;;;;;;;5075043;28;20141;-80
2022/11/21 06:26:02;;;;;;;42.27;22.43;;;-1.40;99.90;;;;;;5074519;28;20085;-80
2022/11/21 06:28:47;;;;;;;41.03;22.70;;;;;;;;;;5073463;28;20039;-80
2022/11/21 06:31:32;;;;;;;46.97;22.97;;;;;;;;;;5075032;28;20074;-80
2022/11/21 06:34:16;;;;;;;47.43;24.80;;;;;;;;;;5074800;28;20396;-80
2022/11/21 06:37:01;;;;;;;42.30;22.47;;;;;;;;;;5074793;28;20518;-80
2022/11/21 06:39:45;;;;;;;42.40;22.40;;;;;;;;;;5073337;28;20488;-80
2022/11/21 06:42:31;;;;;;;46.20;22.20;;;-1.50;99.90;;;;;;5073684;28;20504;-80
2022/11/21 06:45:16;;;;;;;40.47;21.67;;;;;;;;;;5073701;28;20119;-80
2022/11/21 06:48:03;;;;;;;42.60;23.57;;;-1.40;99.90;;;;;;5074327;28;20108;-80
2022/11/21 06:50:48;;;;;;;45.80;23.63;;;;;;;;;;5059029;28;20070;-79
2022/11/21 06:53:33;;;;;;;38.87;21.97;;;-1.60;99.90;;;;;;5069335;28;20141;-80
2022/11/21 06:56:17;;;;;;;41.80;22.20;;;;;;;;;;5074616;28;20027;-80
2022/11/21 06:59:02;;;;;;;40.83;22.50;;;;;;;;;;5074684;28;20075;-80
2022/11/21 07:01:46;;;;;;;40.00;23.10;;;;;;;;;;5074035;28;20031;-80
2022/11/21 07:04:31;;;;;;;43.93;22.23;;;;;;;;;;5074188;28;20071;-80
2022/11/21 07:07:16;;;;;;;46.40;23.80;;;;;;;;;;5059328;28;20086;-80
2022/11/21 07:10:00;;;;;;;41.30;22.40;;;;;;;;;;5072647;28;20455;-79
2022/11/21 07:15:53;;;;;;;45.97;23.47;;;-1.70;99.90;;;;;;5063251;28;20543;-80
2022/11/21 07:18:37;;;;;;;45.10;22.70;;;;;;;;;;5074041;28;20052;-80
2022/11/21 07:21:22;;;;;;;43.70;21.90;;;;;;;;;;5074139;28;20093;-80
2022/11/21 07:24:06;;;;;;;41.47;22.80;;;;;;;;;;5073848;28;20441;-80
2022/11/21 07:26:51;;;;;;;43.73;21.93;;;;;;;;;;5072508;28;20102;-80
2022/11/21 07:29:35;;;;;;;45.90;23.50;;;;;;;;;;5072991;28;20039;-80
2022/11/21 07:32:20;;;;;;;48.20;23.97;;;;;;;;;;5072575;28;20408;-80
2022/11/21 07:35:05;;;;;;;41.80;21.20;;;-1.60;99.90;;;;;;5072240;28;20044;-80
2022/11/21 07:37:49;;;;;;;44.43;23.07;;;;;;;;;;5086500;28;20044;-80
2022/11/21 07:40:34;;;;;;;43.60;23.77;;;;;;;;;;5072576;28;20048;-80
2022/11/21 07:43:19;;;;;;;41.27;23.73;;;-1.60;99.90;;;;;;5073599;28;20067;-80
2022/11/21 07:46:03;;;;;;;42.30;21.90;;;;;;;;;;5072976;28;20087;-80
2022/11/21 07:48:48;;;;;;;48.90;24.73;;;;;;;;;;5058011;28;20043;-80
2022/11/21 07:51:33;;;;;;;57.83;28.10;;;;;;;;;;5072190;28;20040;-80
2022/11/21 07:54:17;;;;;;;62.03;29.87;;;;;;;;;;5093077;28;20059;-80
2022/11/21 07:57:02;;;;;;;45.37;24.87;;;;;;;;;;5093090;28;20043;-80
2022/11/21 07:59:46;;;;;;;47.57;23.93;;;;;;;;;;5093074;28;20031;-81
2022/11/21 08:02:31;;;;;;;48.47;24.10;;;;;;;;;;5093437;28;20526;-80
2022/11/21 08:05:15;;;;;;;50.77;24.23;;;-1.40;99.90;;;;;;5078172;28;20063;-80
2022/11/21 08:07:59;;;;;;;48.27;24.93;;;;;;;;;;5077346;28;20515;-80
2022/11/21 08:10:44;;;;;;;43.33;23.60;;;-1.40;99.90;;;;;;5078075;28;20412;-80
2022/11/21 08:13:29;;;;;;;47.47;24.77;;;;;;;;;;5093006;28;20059;-80
2022/11/21 08:16:13;;;;;;;47.10;24.17;;;;;;;;;;5077981;28;20511;-80
2022/11/21 08:18:59;;;;;;;43.10;23.47;;;-1.30;99.90;;;;;;5077387;28;20511;-80
2022/11/21 08:21:44;;;;;;;46.47;22.63;;;;;;;;;;5093185;28;20043;-80
2022/11/21 08:24:28;;;;;;;39.47;22.27;;;;;;;;;;5063829;28;20043;-80
2022/11/21 08:27:13;;;;;;;46.30;23.40;;;;;;;;;;5092518;28;20115;-80
2022/11/21 08:29:57;;;;;;;40.67;21.57;;;;;;;;;;5077315;28;20039;-80
2022/11/21 08:32:42;;;;;;;43.50;23.50;;;;;;;;;;5092796;28;20089;-80
2022/11/21 08:35:26;;;;;;;40.17;22.23;;;;;;;;;;5063679;28;20035;-80
2022/11/21 08:38:11;;;;;;;46.60;23.83;;;;;;;;;;5092557;28;20100;-80
2022/11/21 08:43:59;;;;;;;43.07;23.17;;;;;;;;;;5079579;28;20051;-81
2022/11/21 08:46:43;;;;;;;40.90;22.43;;;;;;;;;;5077434;28;20530;-81
2022/11/21 08:49:28;;;;;;;44.43;23.77;;;;;;;;;;5092711;28;20668;-81
2022/11/21 08:52:13;;;;;;;42.80;22.60;;;;;;;;;;5091800;28;20109;-81
2022/11/21 08:54:59;;;;;;;40.43;21.47;;;;;;;;;;5076720;28;20287;-81
2022/11/21 08:57:44;;;;;;;40.10;21.60;;;;;;;;;;5077179;28;20043;-81
2022/11/21 09:00:28;;;;;;;42.73;21.43;;;;;;;;;;5077570;28;20039;-81
2022/11/21 09:03:13;;;;;;;39.60;22.33;;;;;;;;;;5092049;28;20236;-81
2022/11/21 09:05:58;;;;;;;41.53;23.67;;;-0.30;99.90;;;;;;5092190;28;20074;-82
2022/11/21 09:08:43;;;;;;;35.23;21.77;;;;;;;;;;5092648;28;20082;-81
2022/11/21 09:11:28;;;;;;;44.33;24.13;;;;;;;;;;5077004;28;20462;-82
2022/11/21 09:20:19;;;;;;;44.60;22.07;;;;;;;;;;5091902;28;20503;-82
2022/11/21 09:23:09;;;;;;;39.23;21.67;;;0.00;99.90;;;;;;5076646;28;20273;-82
2022/11/21 09:25:53;;;;;;;44.13;24.93;;;;;;;;;;5076881;28;20558;-82
2022/11/21 09:28:40;;;;;;;46.17;24.73;;;0.10;99.90;;;;;;5077164;28;20043;-82
2022/11/21 09:31:24;;;;;;;39.40;22.50;;;;;;;;;;5092479;28;20047;-82
2022/11/21 09:34:09;;;;;;;37.77;22.57;;;;;;;;;;5076534;28;20063;-82
2022/11/21 09:36:55;;;;;;;40.13;22.03;;;;;;;;;;5062920;28;20096;-82
2022/11/21 09:39:39;;;;;;;43.27;23.30;;;;;;;;;;5092631;28;20077;-82
2022/11/21 09:42:24;;;;;;;39.43;23.23;;;;;;;;;;5062969;28;20498;-82
2022/11/21 09:45:15;;;;;;;45.20;23.00;;;0.40;99.90;;;;;;5091817;28;20078;-82
2022/11/21 09:48:10;;;;;;;44.93;23.73;;;0.40;99.90;;;;;;5091612;28;20051;-84
2022/11/21 09:50:59;;;;;;;42.97;23.00;;;0.40;99.90;;;;;;5076815;28;20039;-81
2022/11/21 09:54:01;;;;;;;43.13;24.13;;;0.40;99.90;;;;;;5091630;28;20439;-83
2022/11/21 09:56:47;;;;;;;45.50;23.50;;;0.50;99.90;;;;;;5095727;28;20491;-82
2022/11/21 09:59:39;;;;;;;42.70;23.20;;;0.60;99.90;;;;;;5080379;28;20400;-82
2022/11/21 10:02:24;;;;;;;40.83;21.97;;;0.60;99.90;;;;;;5095314;28;20097;-82
2022/11/21 10:05:12;;;;;;;39.40;22.27;;;0.60;99.90;;;;;;5079839;28;20042;-82
2022/11/21 10:08:06;;;;;;;46.47;23.73;;;0.70;99.90;;;;;;5080142;28;20446;-82
2022/11/21 10:11:08;;;;;;;40.23;22.90;;;0.70;99.90;;;;;;5095547;28;20035;-82
2022/11/21 10:14:24;;;;;;;44.43;23.87;;;0.70;99.90;;;;;;5095580;28;20043;-82
2022/11/21 10:17:30;;;;;;;40.67;22.03;;;0.80;99.90;;;;;;5079685;28;20043;-82
2022/11/21 10:20:53;;;;;;;40.50;22.17;;;0.80;99.90;;;;;;5094918;28;20509;-83
2022/11/21 10:24:07;;;;;;;37.00;20.93;;;0.70;99.90;;;;;;5079870;28;20116;-83
2022/11/21 10:27:03;;;;;;;38.67;21.83;;;0.90;99.90;;;;;;5079949;28;20101;-82
2022/11/21 10:30:15;;;;;;;38.23;21.87;;;0.90;99.90;;;;;;5095163;28;20094;-83
2022/11/21 10:33:04;;;;;;;38.67;21.17;;;0.50;99.90;;;;;;5095088;28;20035;-82
2022/11/21 10:36:05;;;;;;;35.50;21.03;;;1.00;99.90;;;;;;5079720;28;20042;-82
2022/11/21 10:38:50;;;;;;;39.33;21.20;;;;;;;;;;5095072;28;20412;-83
2022/11/21 10:41:57;;;;;;;34.07;19.90;;;1.20;99.90;;;;;;5079826;28;20050;-82
2022/11/21 10:48:02;;;;;;;33.40;17.77;;;;;;;;;;5012490;28;20103;-82
2022/11/21 10:50:57;;;;;;;31.57;18.17;;;1.30;99.90;;;;;;5079494;28;20043;-82
2022/11/21 10:56:45;;;;;;;35.07;19.43;;;;;;;;;;5081189;28;20094;-83
2022/11/21 10:59:30;;;;;;;33.73;18.80;;;;;;;;;;5064619;28;20042;-83
2022/11/21 11:02:14;;;;;;;27.27;16.83;;;;;;;;;;5094219;28;20116;-82
2022/11/21 11:05:18;;;;;;;29.57;16.77;;;1.80;99.90;;;;;;5094344;28;20039;-82
2022/11/21 11:08:11;;;;;;;28.23;15.63;;;1.90;99.90;;;;;;5079086;28;20097;-82
2022/11/21 11:11:13;;;;;;;27.67;16.40;;;2.00;99.90;;;;;;5079125;28;20111;-82
2022/11/21 11:14:00;;;;;;;26.47;16.03;;;2.20;99.90;;;;;;5094319;28;20093;-82
2022/11/21 11:16:46;;;;;;;23.93;14.97;;;2.30;99.90;;;;;;5094349;28;20411;-82
2022/11/21 11:19:31;;;;;;;24.43;14.83;;;;;;;;;;5093852;28;20031;-83
2022/11/21 11:22:28;;;;;;;26.53;14.77;;;2.10;99.90;;;;;;5064291;28;20047;-83
2022/11/21 11:25:12;;;;;;;23.57;14.27;;;;;;;;;;5093881;28;20398;-84
2022/11/21 11:28:05;;;;;;;24.43;14.70;;;2.50;99.90;;;;;;5078803;28;20093;-82
2022/11/21 11:30:51;;;;;;;23.17;14.20;;;2.60;99.90;;;;;;5078682;28;20448;-82
2022/11/21 11:33:55;;;;;;;22.10;13.43;;;2.50;99.90;;;;;;5093543;28;20508;-82
2022/11/21 11:37:12;;;;;;;23.63;14.43;;;2.70;99.90;;;;;;5078746;28;20110;-82
2022/11/21 11:40:15;;;;;;;21.17;13.40;;;2.90;99.90;;;;;;5082106;28;20058;-82
2022/11/21 11:50:18;;;;;;;21.87;13.13;;;2.90;99.90;;;;;;5093671;28;20038;-82
2022/11/21 11:53:22;;;;;;;19.03;11.83;;;2.90;99.90;;;;;;5093437;28;20447;-82
2022/11/21 11:56:18;;;;;;;20.60;11.83;;;3.10;99.90;;;;;;5093533;28;20075;-82
2022/11/21 11:59:21;;;;;;;20.50;12.70;;;3.20;99.90;;;;;;5093609;28;20483;-82
2022/11/21 12:02:24;;;;;;;18.90;12.03;;;3.20;99.90;;;;;;5078138;28;20081;-81
2022/11/21 12:05:23;;;;;;;19.10;11.80;;;3.30;99.90;;;;;;5093333;28;20157;-82
2022/11/21 12:08:22;;;;;;;19.37;12.23;;;3.20;99.90;;;;;;5077933;28;20108;-81
2022/11/21 12:18:21;;;;;;;16.00;10.15;;;3.20;99.90;;;;;;5082299;28;20050;-81
2022/11/21 12:21:17;;;;;;;21.93;12.73;;;3.30;99.90;;;;;;5093144;28;20063;-82
2022/11/21 12:24:03;;;;;;;19.80;12.33;;;3.20;99.90;;;;;;5092951;28;20161;-82
2022/11/21 12:27:23;;;;;;;22.93;12.47;;;3.00;99.90;;;;;;5063717;28;20506;-82
2022/11/21 12:30:37;;;;;;;19.73;13.13;;;3.10;99.90;;;;;;5069301;28;20034;-81
2022/11/21 12:33:23;;;;;;;20.48;11.82;;;3.10;99.90;;;;;;5081558;28;20161;-83
2022/11/21 12:36:29;;;;;;;20.60;11.93;;;3.20;99.90;;;;;;5091930;28;20046;-82
2022/11/21 12:39:43;;;;;;;20.10;12.37;;;3.20;99.90;;;;;;5077446;28;20035;-82
2022/11/21 12:42:49;;;;;;;22.75;12.07;;;3.20;99.90;;;;;;5092258;28;20124;-82
2022/11/21 12:45:34;;;;;;;20.27;12.80;;;;;;;;;;5077071;28;20089;-82
2022/11/21 12:55:18;;;;;;;20.77;12.27;;;3.00;99.90;;;;;;5092530;28;20119;-83
2022/11/21 12:58:18;;;;;;;21.60;12.37;;;3.40;99.90;;;;;;5077195;28;20031;-82
2022/11/21 13:01:25;;;;;;;21.10;12.10;;;3.40;99.90;;;;;;5092553;28;20115;-82
2022/11/21 13:04:38;;;;;;;20.43;12.13;;;3.40;99.90;;;;;;5084212;28;20043;-82
2022/11/21 13:07:27;;;;;;;22.60;13.30;;;3.40;99.90;;;;;;5092556;28;20031;-81
2022/11/21 13:10:15;;;;;;;20.40;12.80;;;3.40;99.90;;;;;;5092563;28;20102;-82
2022/11/21 13:13:19;;;;;;;20.30;12.27;;;3.40;99.90;;;;;;5076880;28;20545;-82
2022/11/21 13:16:14;;;;;;;19.50;12.43;;;3.40;99.90;;;;;;5092440;28;20400;-82
2022/11/21 13:19:00;;;;;;;21.93;13.57;;;3.50;99.90;;;;;;5077039;28;20420;-82
2022/11/21 13:21:49;;;;;;;23.27;12.70;;;3.60;99.90;;;;;;5062645;28;20051;-82
2022/11/21 13:24:46;;;;;;;22.77;13.70;;;3.90;99.90;;;;;;5076744;28;20069;-82
2022/11/21 13:27:38;;;;;;;20.67;13.53;;;3.60;99.90;;;;;;5091810;28;20089;-82
2022/11/21 13:30:23;;;;;;;19.77;13.10;;;3.60;99.90;;;;;;5080446;28;20097;-81
2022/11/21 13:33:08;;;;;;;22.57;13.37;;;;;;;;;;5096266;28;20121;-82
2022/11/21 13:35:53;;;;;;;21.20;13.87;;;;;;;;;;5095689;28;20035;-82
2022/11/21 13:38:50;;;;;;;21.93;14.63;;;3.60;99.90;;;;;;5080539;28;20038;-81
2022/11/21 13:44:40;;;;;;;23.57;14.57;;;3.60;99.90;;;;;;5095653;28;20130;-82
2022/11/21 13:47:24;;;;;;;23.07;14.40;;;;;;;;;;5095548;28;20495;-82
2022/11/21 13:50:40;;;;;;;24.80;14.43;;;3.70;99.90;;;;;;5096021;28;20521;-82
2022/11/21 13:53:37;;;;;;;23.77;14.87;;;3.80;99.90;;;;;;5095673;28;20055;-82
2022/11/21 13:56:37;;;;;;;28.70;15.07;;;3.70;99.90;;;;;;5095742;28;20031;-81
2022/11/21 13:59:54;;;;;;;23.27;15.30;;;3.70;99.90;;;;;;5095753;28;20448;-83
2022/11/21 14:02:44;;;;;;;29.03;16.73;;;3.90;99.90;;;;;;5046520;28;20174;-82
2022/11/21 14:05:29;;;;;;;26.37;16.73;;;;;;;;;;5084102;28;20400;-82
2022/11/21 14:08:18;;;;;;;25.67;16.03;;;3.80;99.90;;;;;;5080187;28;20027;-82
2022/11/21 14:11:20;;;;;;;28.93;17.33;;;3.80;99.90;;;;;;5095631;28;20039;-82
2022/11/21 14:14:05;;;;;;;30.27;18.63;;;;;;;;;;5095607;28;20498;-82
2022/11/21 14:17:00;;;;;;;29.03;17.20;;;3.70;99.90;;;;;;5095071;28;20446;-83
2022/11/21 14:19:45;;;;;;;29.33;16.90;;;;;;;;;;5098304;28;20101;-82
2022/11/21 14:22:54;;;;;;;30.40;17.77;;;3.40;99.90;;;;;;5080095;28;20464;-82
2022/11/21 14:25:39;;;;;;;29.67;18.63;;;;;;;;;;5094929;28;20502;-83
2022/11/21 14:28:28;;;;;;;35.67;19.60;;;3.70;99.90;;;;;;5095315;28;20070;-82
2022/11/21 14:31:14;;;;;;;32.87;19.37;;;;;;;;;;5079988;28;20027;-82
2022/11/21 14:33:59;;;;;;;32.87;19.73;;;;;;;;;;5094555;28;20043;-82
2022/11/21 14:36:43;;;;;;;36.73;19.17;;;;;;;;;;5065364;28;20042;-82
2022/11/21 14:39:31;;;;;;;36.13;19.87;;;3.60;99.90;;;;;;5094958;28;20076;-82
2022/11/21 14:42:15;;;;;;;33.20;19.40;;;;;;;;;;5079280;28;20100;-82
2022/11/21 14:45:26;;;;;;;35.00;19.90;;;3.50;99.90;;;;;;5079330;28;20090;-82
2022/11/21 14:48:11;;;;;;;33.40;19.30;;;3.70;99.90;;;;;;5065667;28;20085;-82
2022/11/21 14:50:59;;;;;;;32.40;19.47;;;3.70;99.90;;;;;;5079035;28;20108;-82
2022/11/21 14:53:45;;;;;;;37.47;20.07;;;;;;;;;;5094528;28;20172;-82
2022/11/21 14:56:33;;;;;;;36.77;20.17;;;3.60;99.90;;;;;;5079465;28;20043;-82
2022/11/21 14:59:31;;;;;;;38.60;20.37;;;3.60;99.90;;;;;;5094872;28;20090;-82
2022/11/21 15:02:18;;;;;;;31.60;18.40;;;3.60;99.90;;;;;;5084531;28;20503;-82
2022/11/21 15:05:12;;;;;;;37.00;20.37;;;3.70;99.90;;;;;;5094083;28;20547;-81
2022/11/21 15:07:57;;;;;;;;;;;3.70;99.90;;;;;;5079114;28;20035;-81
2022/11/21 15:10:41;;;;;;;;;;;3.70;99.90;;;;;;5108221;28;19915;-83
2022/11/21 15:13:31;;;;;;;37.88;19.42;;;3.60;99.90;;;;;;5107621;28;20391;-82
2022/11/21 15:16:16;;;;;;;41.90;23.13;;;;;;;;;;5094290;28;20043;-81
2022/11/21 15:19:08;;;;;;;46.17;21.30;;;3.70;99.90;;;;;;5078486;28;20085;-81
2022/11/21 15:21:55;;;;;;;48.20;22.97;;;3.70;99.90;;;;;;5093905;28;20081;-82
2022/11/21 15:24:41;;;;;;;46.07;23.27;;;3.70;99.90;;;;;;5094281;28;20051;-81
2022/11/21 15:27:26;;;;;;;50.63;23.23;;;;;;;;;;5094006;28;20035;-81
2022/11/21 15:30:13;;;;;;;51.50;24.17;;;;;;;;;;5078772;28;20556;-82
2022/11/21 15:33:12;;;;;;;47.63;22.37;;;3.70;99.90;;;;;;5093633;28;20039;-82
2022/11/21 15:35:57;;;;;;;58.80;26.20;;;;;;;;;;5080224;28;20039;-81
2022/11/21 15:39:00;;;;;;;56.90;25.63;;;3.50;99.90;;;;;;5093915;28;20046;-81
2022/11/21 15:41:44;;;;;;;60.33;27.00;;;;;;;;;;5067597;28;20554;-81
2022/11/21 15:44:28;;;;;;;59.37;26.57;;;;;;;;;;5064289;28;20085;-81
2022/11/21 15:47:13;;;;;;;57.40;25.73;;;;;;;;;;5078705;28;20042;-82
2022/11/21 15:49:57;;;;;;;56.07;25.77;;;;;;;;;;5063960;28;20043;-82
2022/11/21 15:52:50;;;;;;;63.60;28.57;;;3.70;99.90;;;;;;5092405;28;20067;-81
2022/11/21 15:55:34;;;;;;;53.70;26.03;;;;;;;;;;5078528;28;20085;-81
2022/11/21 15:58:19;;;;;;;66.33;27.43;;;;;;;;;;5078318;28;20077;-81
2022/11/21 16:01:04;;;;;;;68.03;27.03;;;;;;;;;;5077590;28;20038;-83
2022/11/21 16:03:50;;;;;;;69.00;26.67;;;3.60;99.90;;;;;;5077946;28;20097;-87
2022/11/21 16:06:35;;;;;;;77.37;29.97;;;;;;;;;;5077892;28;20511;-83
2022/11/21 16:09:19;;;;;;;73.90;28.97;;;;;;;;;;5078122;28;20043;-82
2022/11/21 16:12:04;;;;;;;79.10;28.97;;;3.60;99.90;;;;;;5092939;28;20412;-82
2022/11/21 16:14:48;;;;;;;82.90;29.27;;;;;;;;;;5063788;28;20043;-84
2022/11/21 16:17:33;;;;;;;76.40;28.07;;;;;;;;;;5079021;28;20081;-82